sensor_id;sensor_type;location;lat;lon;timestamp;P1;durP1;ratioP1;P2;durP2;ratioP2
43527;SDS011;52359;42.658;23.320;2022-08-20T00:01:40;12.70;;;6.22;;
43527;SDS011;52359;42.658;23.320;2022-08-20T00:04:06;10.80;;;5.78;;
43527;SDS011;52359;42.658;23.320;2022-08-20T00:06:32;11.90;;;5.55;;
43527;SDS011;52359;42.658;23.320;2022-08-20T00:08:58;14.82;;;5.68;;
43527;SDS011;52359;42.658;23.320;2022-08-20T00:11:25;8.82;;;5.13;;
43527;SDS011;52359;42.658;23.320;2022-08-20T00:13:53;10.32;;;5.72;;
43527;SDS011;52359;42.658;23.320;2022-08-20T00:16:20;8.50;;;5.28;;
43527;SDS011;52359;42.658;23.320;2022-08-20T00:18:47;9.88;;;5.32;;
43527;SDS011;52359;42.658;23.320;2022-08-20T00:21:14;8.45;;;5.68;;
43527;SDS011;52359;42.658;23.320;2022-08-20T00:23:42;7.10;;;6.07;;
43527;SDS011;52359;42.658;23.320;2022-08-20T00:26:08;9.82;;;5.82;;
43527;SDS011;52359;42.658;23.320;2022-08-20T00:28:35;8.45;;;6.18;;
43527;SDS011;52359;42.658;23.320;2022-08-20T00:31:02;8.73;;;5.40;;
43527;SDS011;52359;42.658;23.320;2022-08-20T00:33:30;16.73;;;5.53;;
43527;SDS011;52359;42.658;23.320;2022-08-20T00:35:56;11.52;;;5.38;;
43527;SDS011;52359;42.658;23.320;2022-08-20T00:38:23;6.18;;;5.32;;
43527;SDS011;52359;42.658;23.320;2022-08-20T00:40:51;8.95;;;4.97;;
43527;SDS011;52359;42.658;23.320;2022-08-20T00:46:00;14.00;;;5.53;;
43527;SDS011;52359;42.658;23.320;2022-08-20T00:48:28;16.38;;;5.80;;
43527;SDS011;52359;42.658;23.320;2022-08-20T00:50:57;15.20;;;5.55;;
43527;SDS011;52359;42.658;23.320;2022-08-20T00:53:24;14.00;;;6.05;;
43527;SDS011;52359;42.658;23.320;2022-08-20T00:55:50;8.77;;;5.75;;
43527;SDS011;52359;42.658;23.320;2022-08-20T00:58:16;13.93;;;5.47;;
43527;SDS011;52359;42.658;23.320;2022-08-20T01:00:44;9.73;;;5.82;;
43527;SDS011;52359;42.658;23.320;2022-08-20T01:03:11;10.60;;;6.00;;
43527;SDS011;52359;42.658;23.320;2022-08-20T01:05:39;10.30;;;5.70;;
43527;SDS011;52359;42.658;23.320;2022-08-20T01:08:06;8.60;;;5.97;;
43527;SDS011;52359;42.658;23.320;2022-08-20T01:10:34;9.27;;;5.82;;
43527;SDS011;52359;42.658;23.320;2022-08-20T01:13:03;12.40;;;5.68;;
43527;SDS011;52359;42.658;23.320;2022-08-20T01:15:35;8.05;;;5.05;;
43527;SDS011;52359;42.658;23.320;2022-08-20T01:18:03;13.85;;;5.95;;
43527;SDS011;52359;42.658;23.320;2022-08-20T01:20:31;8.15;;;5.45;;
43527;SDS011;52359;42.658;23.320;2022-08-20T01:23:05;22.08;;;6.03;;
43527;SDS011;52359;42.658;23.320;2022-08-20T01:31:02;9.75;;;5.93;;
43527;SDS011;52359;42.658;23.320;2022-08-20T01:33:28;9.85;;;5.32;;
43527;SDS011;52359;42.658;23.320;2022-08-20T01:35:55;10.48;;;6.30;;
43527;SDS011;52359;42.658;23.320;2022-08-20T01:38:21;10.65;;;5.68;;
43527;SDS011;52359;42.658;23.320;2022-08-20T01:43:16;9.95;;;5.78;;
43527;SDS011;52359;42.658;23.320;2022-08-20T01:45:42;12.88;;;5.72;;
43527;SDS011;52359;42.658;23.320;2022-08-20T01:48:08;19.08;;;6.43;;
43527;SDS011;52359;42.658;23.320;2022-08-20T01:50:34;9.35;;;5.85;;
43527;SDS011;52359;42.658;23.320;2022-08-20T01:55:38;10.15;;;5.85;;
43527;SDS011;52359;42.658;23.320;2022-08-20T01:58:04;7.47;;;5.43;;
43527;SDS011;52359;42.658;23.320;2022-08-20T02:00:30;12.25;;;6.30;;
43527;SDS011;52359;42.658;23.320;2022-08-20T02:02:56;12.95;;;6.00;;
43527;SDS011;52359;42.658;23.320;2022-08-20T02:05:22;13.45;;;5.80;;
43527;SDS011;52359;42.658;23.320;2022-08-20T02:07:48;7.55;;;5.47;;
43527;SDS011;52359;42.658;23.320;2022-08-20T02:10:14;12.30;;;6.15;;
43527;SDS011;52359;42.658;23.320;2022-08-20T02:12:41;11.32;;;6.10;;
43527;SDS011;52359;42.658;23.320;2022-08-20T02:15:08;7.38;;;5.70;;
43527;SDS011;52359;42.658;23.320;2022-08-20T02:17:35;9.88;;;5.68;;
43527;SDS011;52359;42.658;23.320;2022-08-20T02:20:03;30.38;;;6.63;;
43527;SDS011;52359;42.658;23.320;2022-08-20T02:25:09;11.02;;;6.00;;
43527;SDS011;52359;42.658;23.320;2022-08-20T02:27:37;9.55;;;5.82;;
43527;SDS011;52359;42.658;23.320;2022-08-20T02:30:06;6.68;;;5.63;;
43527;SDS011;52359;42.658;23.320;2022-08-20T02:32:37;13.85;;;6.10;;
43527;SDS011;52359;42.658;23.320;2022-08-20T02:35:05;12.52;;;6.30;;
43527;SDS011;52359;42.658;23.320;2022-08-20T02:37:33;11.45;;;6.28;;
43527;SDS011;52359;42.658;23.320;2022-08-20T02:40:03;7.70;;;5.80;;
43527;SDS011;52359;42.658;23.320;2022-08-20T02:42:32;8.63;;;6.10;;
43527;SDS011;52359;42.658;23.320;2022-08-20T02:44:59;11.25;;;6.55;;
43527;SDS011;52359;42.658;23.320;2022-08-20T02:47:25;9.27;;;5.65;;
43527;SDS011;52359;42.658;23.320;2022-08-20T02:49:52;11.77;;;6.78;;
43527;SDS011;52359;42.658;23.320;2022-08-20T02:52:18;9.07;;;6.18;;
43527;SDS011;52359;42.658;23.320;2022-08-20T02:54:45;6.50;;;5.68;;
43527;SDS011;52359;42.658;23.320;2022-08-20T02:57:13;6.00;;;5.40;;
43527;SDS011;52359;42.658;23.320;2022-08-20T02:59:41;6.78;;;5.30;;
43527;SDS011;52359;42.658;23.320;2022-08-20T03:02:09;10.48;;;5.50;;
43527;SDS011;52359;42.658;23.320;2022-08-20T03:04:36;7.50;;;5.90;;
43527;SDS011;52359;42.658;23.320;2022-08-20T03:07:03;7.07;;;6.32;;
43527;SDS011;52359;42.658;23.320;2022-08-20T03:09:29;10.55;;;6.60;;
43527;SDS011;52359;42.658;23.320;2022-08-20T03:11:55;7.28;;;6.57;;
43527;SDS011;52359;42.658;23.320;2022-08-20T03:14:21;12.90;;;6.85;;
43527;SDS011;52359;42.658;23.320;2022-08-20T03:16:47;15.70;;;6.40;;
43527;SDS011;52359;42.658;23.320;2022-08-20T03:19:13;11.68;;;6.28;;
43527;SDS011;52359;42.658;23.320;2022-08-20T03:21:38;21.38;;;8.07;;
43527;SDS011;52359;42.658;23.320;2022-08-20T03:24:04;25.42;;;7.55;;
43527;SDS011;52359;42.658;23.320;2022-08-20T03:26:30;13.00;;;6.05;;
43527;SDS011;52359;42.658;23.320;2022-08-20T03:28:56;11.13;;;6.10;;
43527;SDS011;52359;42.658;23.320;2022-08-20T03:31:22;15.02;;;6.75;;
43527;SDS011;52359;42.658;23.320;2022-08-20T03:33:47;12.05;;;6.88;;
43527;SDS011;52359;42.658;23.320;2022-08-20T03:36:13;9.02;;;6.75;;
43527;SDS011;52359;42.658;23.320;2022-08-20T03:38:39;14.05;;;6.38;;
43527;SDS011;52359;42.658;23.320;2022-08-20T03:41:04;12.55;;;7.35;;
43527;SDS011;52359;42.658;23.320;2022-08-20T03:43:30;12.57;;;6.18;;
43527;SDS011;52359;42.658;23.320;2022-08-20T03:45:57;11.48;;;5.97;;
43527;SDS011;52359;42.658;23.320;2022-08-20T03:48:23;9.45;;;6.18;;
43527;SDS011;52359;42.658;23.320;2022-08-20T03:50:49;10.00;;;6.80;;
43527;SDS011;52359;42.658;23.320;2022-08-20T03:53:15;8.13;;;5.80;;
43527;SDS011;52359;42.658;23.320;2022-08-20T03:55:43;11.90;;;6.13;;
43527;SDS011;52359;42.658;23.320;2022-08-20T03:58:11;20.23;;;7.05;;
43527;SDS011;52359;42.658;23.320;2022-08-20T04:00:40;13.80;;;6.85;;
43527;SDS011;52359;42.658;23.320;2022-08-20T04:03:11;12.88;;;7.00;;
43527;SDS011;52359;42.658;23.320;2022-08-20T04:05:38;9.80;;;6.72;;
43527;SDS011;52359;42.658;23.320;2022-08-20T04:08:05;9.77;;;6.22;;
43527;SDS011;52359;42.658;23.320;2022-08-20T04:10:33;12.73;;;7.32;;
43527;SDS011;52359;42.658;23.320;2022-08-20T04:12:59;27.17;;;6.82;;
43527;SDS011;52359;42.658;23.320;2022-08-20T04:15:24;20.50;;;7.25;;
43527;SDS011;52359;42.658;23.320;2022-08-20T04:17:51;14.07;;;7.13;;
43527;SDS011;52359;42.658;23.320;2022-08-20T04:20:19;21.25;;;7.28;;
43527;SDS011;52359;42.658;23.320;2022-08-20T04:22:48;17.98;;;6.65;;
43527;SDS011;52359;42.658;23.320;2022-08-20T04:25:18;11.77;;;6.93;;
43527;SDS011;52359;42.658;23.320;2022-08-20T04:27:45;15.57;;;7.20;;
43527;SDS011;52359;42.658;23.320;2022-08-20T04:30:13;21.88;;;7.60;;
43527;SDS011;52359;42.658;23.320;2022-08-20T04:32:42;19.40;;;6.93;;
43527;SDS011;52359;42.658;23.320;2022-08-20T04:35:09;14.02;;;7.10;;
43527;SDS011;52359;42.658;23.320;2022-08-20T04:37:39;13.73;;;6.93;;
43527;SDS011;52359;42.658;23.320;2022-08-20T04:40:07;14.02;;;6.90;;
43527;SDS011;52359;42.658;23.320;2022-08-20T04:42:54;13.52;;;7.20;;
43527;SDS011;52359;42.658;23.320;2022-08-20T04:45:21;13.38;;;7.78;;
43527;SDS011;52359;42.658;23.320;2022-08-20T04:47:47;10.57;;;6.85;;
43527;SDS011;52359;42.658;23.320;2022-08-20T04:50:14;12.10;;;6.72;;
43527;SDS011;52359;42.658;23.320;2022-08-20T04:52:40;13.30;;;8.55;;
43527;SDS011;52359;42.658;23.320;2022-08-20T04:55:06;15.65;;;7.53;;
43527;SDS011;52359;42.658;23.320;2022-08-20T04:57:33;10.10;;;7.00;;
43527;SDS011;52359;42.658;23.320;2022-08-20T05:00:06;13.98;;;7.38;;
43527;SDS011;52359;42.658;23.320;2022-08-20T05:02:34;15.13;;;7.40;;
43527;SDS011;52359;42.658;23.320;2022-08-20T05:05:02;10.82;;;7.82;;
43527;SDS011;52359;42.658;23.320;2022-08-20T05:07:29;15.73;;;7.53;;
43527;SDS011;52359;42.658;23.320;2022-08-20T05:09:54;12.82;;;7.60;;
43527;SDS011;52359;42.658;23.320;2022-08-20T05:12:20;13.23;;;7.57;;
43527;SDS011;52359;42.658;23.320;2022-08-20T05:14:46;11.02;;;7.45;;
43527;SDS011;52359;42.658;23.320;2022-08-20T05:17:12;15.70;;;7.30;;
43527;SDS011;52359;42.658;23.320;2022-08-20T05:19:40;9.38;;;7.40;;
43527;SDS011;52359;42.658;23.320;2022-08-20T05:22:06;11.93;;;7.00;;
43527;SDS011;52359;42.658;23.320;2022-08-20T05:24:32;19.17;;;8.65;;
43527;SDS011;52359;42.658;23.320;2022-08-20T05:26:59;14.45;;;7.90;;
43527;SDS011;52359;42.658;23.320;2022-08-20T05:29:25;12.18;;;7.47;;
43527;SDS011;52359;42.658;23.320;2022-08-20T05:31:52;13.23;;;7.70;;
43527;SDS011;52359;42.658;23.320;2022-08-20T05:34:19;15.90;;;7.75;;
43527;SDS011;52359;42.658;23.320;2022-08-20T05:36:46;20.75;;;8.48;;
43527;SDS011;52359;42.658;23.320;2022-08-20T05:39:13;16.30;;;7.95;;
43527;SDS011;52359;42.658;23.320;2022-08-20T05:41:40;24.95;;;8.40;;
43527;SDS011;52359;42.658;23.320;2022-08-20T05:44:07;33.13;;;7.97;;
43527;SDS011;52359;42.658;23.320;2022-08-20T05:46:35;19.95;;;7.63;;
43527;SDS011;52359;42.658;23.320;2022-08-20T05:49:05;15.90;;;7.78;;
43527;SDS011;52359;42.658;23.320;2022-08-20T05:51:36;18.48;;;7.60;;
43527;SDS011;52359;42.658;23.320;2022-08-20T05:54:02;13.52;;;7.22;;
43527;SDS011;52359;42.658;23.320;2022-08-20T05:56:29;25.63;;;7.00;;
43527;SDS011;52359;42.658;23.320;2022-08-20T05:58:55;15.80;;;7.70;;
43527;SDS011;52359;42.658;23.320;2022-08-20T06:01:21;15.20;;;7.78;;
43527;SDS011;52359;42.658;23.320;2022-08-20T06:03:47;11.43;;;7.70;;
43527;SDS011;52359;42.658;23.320;2022-08-20T06:06:32;18.08;;;8.40;;
43527;SDS011;52359;42.658;23.320;2022-08-20T06:08:58;15.48;;;8.02;;
43527;SDS011;52359;42.658;23.320;2022-08-20T06:11:24;15.32;;;8.23;;
43527;SDS011;52359;42.658;23.320;2022-08-20T06:13:49;11.27;;;7.32;;
43527;SDS011;52359;42.658;23.320;2022-08-20T06:16:15;19.05;;;7.68;;
43527;SDS011;52359;42.658;23.320;2022-08-20T06:18:41;15.02;;;7.28;;
43527;SDS011;52359;42.658;23.320;2022-08-20T06:21:06;15.05;;;8.07;;
43527;SDS011;52359;42.658;23.320;2022-08-20T06:23:32;14.18;;;7.50;;
43527;SDS011;52359;42.658;23.320;2022-08-20T06:25:58;11.30;;;7.32;;
43527;SDS011;52359;42.658;23.320;2022-08-20T06:28:23;11.68;;;7.68;;
43527;SDS011;52359;42.658;23.320;2022-08-20T06:30:49;14.52;;;7.30;;
43527;SDS011;52359;42.658;23.320;2022-08-20T06:33:15;15.45;;;7.20;;
43527;SDS011;52359;42.658;23.320;2022-08-20T06:35:40;16.73;;;7.10;;
43527;SDS011;52359;42.658;23.320;2022-08-20T06:38:08;12.63;;;7.07;;
43527;SDS011;52359;42.658;23.320;2022-08-20T06:40:36;14.15;;;7.25;;
43527;SDS011;52359;42.658;23.320;2022-08-20T06:43:03;19.52;;;7.75;;
43527;SDS011;52359;42.658;23.320;2022-08-20T06:45:30;18.92;;;7.80;;
43527;SDS011;52359;42.658;23.320;2022-08-20T06:47:57;25.23;;;7.97;;
43527;SDS011;52359;42.658;23.320;2022-08-20T06:50:29;14.65;;;8.02;;
43527;SDS011;52359;42.658;23.320;2022-08-20T06:55:23;12.77;;;8.15;;
43527;SDS011;52359;42.658;23.320;2022-08-20T06:58:11;13.18;;;7.85;;
43527;SDS011;52359;42.658;23.320;2022-08-20T07:00:38;18.17;;;7.97;;
43527;SDS011;52359;42.658;23.320;2022-08-20T07:03:06;15.38;;;7.05;;
43527;SDS011;52359;42.658;23.320;2022-08-20T07:05:33;15.48;;;8.02;;
43527;SDS011;52359;42.658;23.320;2022-08-20T07:08:02;16.70;;;8.20;;
43527;SDS011;52359;42.658;23.320;2022-08-20T07:10:28;10.90;;;7.35;;
43527;SDS011;52359;42.658;23.320;2022-08-20T07:12:56;10.85;;;7.43;;
43527;SDS011;52359;42.658;23.320;2022-08-20T07:15:24;18.63;;;7.82;;
43527;SDS011;52359;42.658;23.320;2022-08-20T07:20:16;12.90;;;8.13;;
43527;SDS011;52359;42.658;23.320;2022-08-20T07:22:42;15.20;;;7.57;;
43527;SDS011;52359;42.658;23.320;2022-08-20T07:25:09;13.15;;;7.30;;
43527;SDS011;52359;42.658;23.320;2022-08-20T07:27:38;25.23;;;8.35;;
43527;SDS011;52359;42.658;23.320;2022-08-20T07:30:05;19.67;;;8.20;;
43527;SDS011;52359;42.658;23.320;2022-08-20T07:32:51;14.80;;;7.35;;
43527;SDS011;52359;42.658;23.320;2022-08-20T07:35:18;9.13;;;6.78;;
43527;SDS011;52359;42.658;23.320;2022-08-20T07:37:45;13.05;;;7.70;;
43527;SDS011;52359;42.658;23.320;2022-08-20T07:40:17;17.33;;;7.55;;
43527;SDS011;52359;42.658;23.320;2022-08-20T07:42:43;13.50;;;8.32;;
43527;SDS011;52359;42.658;23.320;2022-08-20T07:45:10;14.68;;;7.25;;
43527;SDS011;52359;42.658;23.320;2022-08-20T07:47:37;22.88;;;7.70;;
43527;SDS011;52359;42.658;23.320;2022-08-20T07:50:04;12.27;;;6.35;;
43527;SDS011;52359;42.658;23.320;2022-08-20T07:52:30;9.95;;;7.05;;
43527;SDS011;52359;42.658;23.320;2022-08-20T07:54:59;12.73;;;7.30;;
43527;SDS011;52359;42.658;23.320;2022-08-20T07:57:25;18.45;;;7.13;;
43527;SDS011;52359;42.658;23.320;2022-08-20T07:59:51;11.73;;;6.68;;
43527;SDS011;52359;42.658;23.320;2022-08-20T08:02:17;30.95;;;7.28;;
43527;SDS011;52359;42.658;23.320;2022-08-20T08:04:43;12.68;;;6.70;;
43527;SDS011;52359;42.658;23.320;2022-08-20T08:07:10;13.20;;;6.88;;
43527;SDS011;52359;42.658;23.320;2022-08-20T08:09:36;11.43;;;7.63;;
43527;SDS011;52359;42.658;23.320;2022-08-20T08:12:03;12.00;;;6.45;;
43527;SDS011;52359;42.658;23.320;2022-08-20T08:14:30;11.52;;;6.40;;
43527;SDS011;52359;42.658;23.320;2022-08-20T08:16:57;11.20;;;7.38;;
43527;SDS011;52359;42.658;23.320;2022-08-20T08:19:25;9.48;;;6.68;;
43527;SDS011;52359;42.658;23.320;2022-08-20T08:21:51;10.32;;;6.93;;
43527;SDS011;52359;42.658;23.320;2022-08-20T08:24:17;9.18;;;6.63;;
43527;SDS011;52359;42.658;23.320;2022-08-20T08:26:43;11.50;;;6.65;;
43527;SDS011;52359;42.658;23.320;2022-08-20T08:29:09;9.07;;;6.00;;
43527;SDS011;52359;42.658;23.320;2022-08-20T08:31:36;16.25;;;6.82;;
43527;SDS011;52359;42.658;23.320;2022-08-20T08:34:04;15.52;;;6.55;;
43527;SDS011;52359;42.658;23.320;2022-08-20T08:36:31;10.43;;;6.18;;
43527;SDS011;52359;42.658;23.320;2022-08-20T08:38:57;10.55;;;6.28;;
43527;SDS011;52359;42.658;23.320;2022-08-20T08:46:37;12.27;;;6.07;;
43527;SDS011;52359;42.658;23.320;2022-08-20T08:49:04;12.00;;;6.28;;
43527;SDS011;52359;42.658;23.320;2022-08-20T08:52:05;9.52;;;6.68;;
43527;SDS011;52359;42.658;23.320;2022-08-20T08:54:24;11.00;;;6.70;;
43527;SDS011;52359;42.658;23.320;2022-08-20T08:56:51;13.65;;;6.50;;
43527;SDS011;52359;42.658;23.320;2022-08-20T08:59:19;8.27;;;6.28;;
43527;SDS011;52359;42.658;23.320;2022-08-20T09:01:52;8.70;;;6.55;;
43527;SDS011;52359;42.658;23.320;2022-08-20T09:04:19;13.45;;;6.57;;
43527;SDS011;52359;42.658;23.320;2022-08-20T09:06:46;7.13;;;6.28;;
43527;SDS011;52359;42.658;23.320;2022-08-20T09:09:17;17.50;;;7.07;;
43527;SDS011;52359;42.658;23.320;2022-08-20T09:11:45;10.03;;;6.17;;
43527;SDS011;52359;42.658;23.320;2022-08-20T09:14:12;16.33;;;5.97;;
43527;SDS011;52359;42.658;23.320;2022-08-20T09:16:38;11.82;;;6.22;;
43527;SDS011;52359;42.658;23.320;2022-08-20T09:19:04;12.30;;;6.00;;
43527;SDS011;52359;42.658;23.320;2022-08-20T09:21:30;6.88;;;6.20;;
43527;SDS011;52359;42.658;23.320;2022-08-20T09:23:56;14.13;;;7.05;;
43527;SDS011;52359;42.658;23.320;2022-08-20T09:26:22;10.18;;;6.60;;
43527;SDS011;52359;42.658;23.320;2022-08-20T09:28:48;10.88;;;6.20;;
43527;SDS011;52359;42.658;23.320;2022-08-20T09:31:14;7.63;;;6.53;;
43527;SDS011;52359;42.658;23.320;2022-08-20T09:33:40;13.43;;;6.25;;
43527;SDS011;52359;42.658;23.320;2022-08-20T09:36:06;9.50;;;6.72;;
43527;SDS011;52359;42.658;23.320;2022-08-20T09:38:32;13.18;;;6.10;;
43527;SDS011;52359;42.658;23.320;2022-08-20T09:40:59;9.82;;;5.75;;
43527;SDS011;52359;42.658;23.320;2022-08-20T09:43:25;8.27;;;5.72;;
43527;SDS011;52359;42.658;23.320;2022-08-20T09:45:51;12.60;;;5.75;;
43527;SDS011;52359;42.658;23.320;2022-08-20T09:48:17;7.70;;;5.57;;
43527;SDS011;52359;42.658;23.320;2022-08-20T09:50:46;7.47;;;5.70;;
43527;SDS011;52359;42.658;23.320;2022-08-20T09:53:13;9.65;;;6.45;;
43527;SDS011;52359;42.658;23.320;2022-08-20T09:55:40;9.57;;;5.57;;
43527;SDS011;52359;42.658;23.320;2022-08-20T09:58:16;8.23;;;5.47;;
43527;SDS011;52359;42.658;23.320;2022-08-20T10:00:43;8.85;;;5.65;;
43527;SDS011;52359;42.658;23.320;2022-08-20T10:03:09;9.20;;;5.15;;
43527;SDS011;52359;42.658;23.320;2022-08-20T10:05:35;9.18;;;5.32;;
43527;SDS011;52359;42.658;23.320;2022-08-20T10:08:05;13.98;;;5.60;;
43527;SDS011;52359;42.658;23.320;2022-08-20T10:10:31;13.43;;;5.55;;
43527;SDS011;52359;42.658;23.320;2022-08-20T10:12:57;8.52;;;5.10;;
43527;SDS011;52359;42.658;23.320;2022-08-20T10:15:24;10.98;;;5.68;;
43527;SDS011;52359;42.658;23.320;2022-08-20T10:17:50;6.15;;;5.55;;
43527;SDS011;52359;42.658;23.320;2022-08-20T10:20:16;6.88;;;5.32;;
43527;SDS011;52359;42.658;23.320;2022-08-20T10:22:43;5.88;;;5.20;;
43527;SDS011;52359;42.658;23.320;2022-08-20T10:25:09;11.00;;;5.35;;
43527;SDS011;52359;42.658;23.320;2022-08-20T10:27:35;7.07;;;5.60;;
43527;SDS011;52359;42.658;23.320;2022-08-20T10:30:02;12.25;;;6.38;;
43527;SDS011;52359;42.658;23.320;2022-08-20T10:32:28;9.32;;;5.88;;
43527;SDS011;52359;42.658;23.320;2022-08-20T10:34:54;7.75;;;5.57;;
43527;SDS011;52359;42.658;23.320;2022-08-20T10:37:21;6.55;;;5.15;;
43527;SDS011;52359;42.658;23.320;2022-08-20T10:39:47;9.23;;;5.25;;
43527;SDS011;52359;42.658;23.320;2022-08-20T10:42:14;6.55;;;5.22;;
43527;SDS011;52359;42.658;23.320;2022-08-20T10:44:40;9.88;;;4.93;;
43527;SDS011;52359;42.658;23.320;2022-08-20T10:49:50;5.55;;;5.05;;
43527;SDS011;52359;42.658;23.320;2022-08-20T10:52:17;8.23;;;5.40;;
43527;SDS011;52359;42.658;23.320;2022-08-20T10:54:43;7.97;;;5.28;;
43527;SDS011;52359;42.658;23.320;2022-08-20T10:57:20;6.60;;;6.10;;
43527;SDS011;52359;42.658;23.320;2022-08-20T10:59:47;8.63;;;5.65;;
43527;SDS011;52359;42.658;23.320;2022-08-20T11:02:14;8.20;;;5.40;;
43527;SDS011;52359;42.658;23.320;2022-08-20T11:04:40;7.13;;;5.68;;
43527;SDS011;52359;42.658;23.320;2022-08-20T11:09:41;9.93;;;6.35;;
43527;SDS011;52359;42.658;23.320;2022-08-20T11:12:08;6.13;;;5.53;;
43527;SDS011;52359;42.658;23.320;2022-08-20T11:14:34;6.35;;;5.63;;
43527;SDS011;52359;42.658;23.320;2022-08-20T11:17:00;10.23;;;5.93;;
43527;SDS011;52359;42.658;23.320;2022-08-20T11:19:26;8.38;;;5.80;;
43527;SDS011;52359;42.658;23.320;2022-08-20T11:21:52;7.63;;;6.03;;
43527;SDS011;52359;42.658;23.320;2022-08-20T11:24:18;8.90;;;5.88;;
43527;SDS011;52359;42.658;23.320;2022-08-20T11:26:45;13.35;;;5.50;;
43527;SDS011;52359;42.658;23.320;2022-08-20T11:29:12;8.63;;;5.93;;
43527;SDS011;52359;42.658;23.320;2022-08-20T11:31:38;7.97;;;5.57;;
43527;SDS011;52359;42.658;23.320;2022-08-20T11:34:04;21.77;;;6.72;;
43527;SDS011;52359;42.658;23.320;2022-08-20T11:36:30;13.63;;;6.15;;
43527;SDS011;52359;42.658;23.320;2022-08-20T11:38:57;7.45;;;5.88;;
43527;SDS011;52359;42.658;23.320;2022-08-20T11:41:23;11.07;;;6.45;;
43527;SDS011;52359;42.658;23.320;2022-08-20T11:43:49;7.22;;;5.78;;
43527;SDS011;52359;42.658;23.320;2022-08-20T11:46:15;12.02;;;6.28;;
43527;SDS011;52359;42.658;23.320;2022-08-20T11:48:41;7.93;;;5.95;;
43527;SDS011;52359;42.658;23.320;2022-08-20T11:51:07;6.88;;;6.18;;
43527;SDS011;52359;42.658;23.320;2022-08-20T11:53:33;8.15;;;6.07;;
43527;SDS011;52359;42.658;23.320;2022-08-20T11:55:59;12.50;;;6.60;;
43527;SDS011;52359;42.658;23.320;2022-08-20T11:58:26;14.88;;;5.88;;
43527;SDS011;52359;42.658;23.320;2022-08-20T12:00:52;11.18;;;5.82;;
43527;SDS011;52359;42.658;23.320;2022-08-20T12:03:18;11.73;;;6.70;;
43527;SDS011;52359;42.658;23.320;2022-08-20T12:05:44;9.35;;;6.63;;
43527;SDS011;52359;42.658;23.320;2022-08-20T12:08:11;15.27;;;7.57;;
43527;SDS011;52359;42.658;23.320;2022-08-20T12:10:37;7.30;;;5.88;;
43527;SDS011;52359;42.658;23.320;2022-08-20T12:13:04;5.90;;;5.40;;
43527;SDS011;52359;42.658;23.320;2022-08-20T12:15:34;12.98;;;6.00;;
43527;SDS011;52359;42.658;23.320;2022-08-20T12:18:04;9.25;;;5.45;;
43527;SDS011;52359;42.658;23.320;2022-08-20T12:20:30;7.18;;;5.55;;
43527;SDS011;52359;42.658;23.320;2022-08-20T12:22:56;12.77;;;6.15;;
43527;SDS011;52359;42.658;23.320;2022-08-20T12:25:23;14.05;;;6.13;;
43527;SDS011;52359;42.658;23.320;2022-08-20T12:27:49;16.23;;;6.28;;
43527;SDS011;52359;42.658;23.320;2022-08-20T12:30:17;38.65;;;8.77;;
43527;SDS011;52359;42.658;23.320;2022-08-20T12:32:44;72.65;;;12.30;;
43527;SDS011;52359;42.658;23.320;2022-08-20T12:35:11;39.17;;;10.93;;
43527;SDS011;52359;42.658;23.320;2022-08-20T12:37:37;25.13;;;9.00;;
43527;SDS011;52359;42.658;23.320;2022-08-20T12:40:04;19.25;;;10.77;;
43527;SDS011;52359;42.658;23.320;2022-08-20T12:42:31;27.77;;;10.32;;
43527;SDS011;52359;42.658;23.320;2022-08-20T12:44:58;37.75;;;9.85;;
43527;SDS011;52359;42.658;23.320;2022-08-20T12:47:28;29.80;;;11.13;;
43527;SDS011;52359;42.658;23.320;2022-08-20T12:49:56;28.20;;;11.57;;
43527;SDS011;52359;42.658;23.320;2022-08-20T12:52:24;37.75;;;12.60;;
43527;SDS011;52359;42.658;23.320;2022-08-20T12:54:51;34.05;;;11.90;;
43527;SDS011;52359;42.658;23.320;2022-08-20T12:57:25;39.90;;;13.77;;
43527;SDS011;52359;42.658;23.320;2022-08-20T12:59:53;31.17;;;11.77;;
43527;SDS011;52359;42.658;23.320;2022-08-20T13:02:19;28.45;;;11.73;;
43527;SDS011;52359;42.658;23.320;2022-08-20T13:04:45;34.58;;;13.25;;
43527;SDS011;52359;42.658;23.320;2022-08-20T13:07:11;30.35;;;12.57;;
43527;SDS011;52359;42.658;23.320;2022-08-20T13:09:38;26.08;;;11.98;;
43527;SDS011;52359;42.658;23.320;2022-08-20T13:12:04;30.38;;;12.18;;
43527;SDS011;52359;42.658;23.320;2022-08-20T13:14:30;17.05;;;9.82;;
43527;SDS011;52359;42.658;23.320;2022-08-20T13:16:57;14.57;;;9.50;;
43527;SDS011;52359;42.658;23.320;2022-08-20T13:19:24;20.75;;;11.57;;
43527;SDS011;52359;42.658;23.320;2022-08-20T13:21:51;20.27;;;10.68;;
43527;SDS011;52359;42.658;23.320;2022-08-20T13:24:17;14.82;;;9.20;;
43527;SDS011;52359;42.658;23.320;2022-08-20T13:26:44;22.95;;;11.43;;
43527;SDS011;52359;42.658;23.320;2022-08-20T13:29:10;19.63;;;10.55;;
43527;SDS011;52359;42.658;23.320;2022-08-20T13:31:37;32.85;;;14.30;;
43527;SDS011;52359;42.658;23.320;2022-08-20T13:34:03;26.17;;;12.18;;
43527;SDS011;52359;42.658;23.320;2022-08-20T13:36:29;21.42;;;11.35;;
43527;SDS011;52359;42.658;23.320;2022-08-20T13:38:56;23.48;;;11.27;;
43527;SDS011;52359;42.658;23.320;2022-08-20T13:41:22;24.05;;;12.32;;
43527;SDS011;52359;42.658;23.320;2022-08-20T13:43:48;14.00;;;10.27;;
43527;SDS011;52359;42.658;23.320;2022-08-20T13:46:14;20.67;;;11.18;;
43527;SDS011;52359;42.658;23.320;2022-08-20T13:48:40;20.23;;;11.77;;
43527;SDS011;52359;42.658;23.320;2022-08-20T13:51:06;21.92;;;11.18;;
43527;SDS011;52359;42.658;23.320;2022-08-20T13:53:32;18.83;;;10.15;;
43527;SDS011;52359;42.658;23.320;2022-08-20T13:55:58;18.48;;;11.32;;
43527;SDS011;52359;42.658;23.320;2022-08-20T13:58:24;16.45;;;11.40;;
43527;SDS011;52359;42.658;23.320;2022-08-20T14:00:51;22.42;;;11.98;;
43527;SDS011;52359;42.658;23.320;2022-08-20T14:03:17;18.95;;;10.18;;
43527;SDS011;52359;42.658;23.320;2022-08-20T14:05:43;17.60;;;10.00;;
43527;SDS011;52359;42.658;23.320;2022-08-20T14:08:10;16.35;;;8.63;;
43527;SDS011;52359;42.658;23.320;2022-08-20T14:10:37;12.98;;;9.02;;
43527;SDS011;52359;42.658;23.320;2022-08-20T14:13:03;18.15;;;9.30;;
43527;SDS011;52359;42.658;23.320;2022-08-20T14:15:30;16.08;;;10.43;;
43527;SDS011;52359;42.658;23.320;2022-08-20T14:17:57;12.57;;;9.23;;
43527;SDS011;52359;42.658;23.320;2022-08-20T14:20:26;18.08;;;9.23;;
43527;SDS011;52359;42.658;23.320;2022-08-20T14:22:52;16.30;;;9.90;;
43527;SDS011;52359;42.658;23.320;2022-08-20T14:25:19;13.85;;;8.82;;
43527;SDS011;52359;42.658;23.320;2022-08-20T14:27:45;13.35;;;9.00;;
43527;SDS011;52359;42.658;23.320;2022-08-20T14:30:45;20.15;;;8.80;;
43527;SDS011;52359;42.658;23.320;2022-08-20T14:33:04;16.60;;;8.68;;
43527;SDS011;52359;42.658;23.320;2022-08-20T14:35:30;13.75;;;9.25;;
43527;SDS011;52359;42.658;23.320;2022-08-20T14:37:56;9.38;;;6.80;;
43527;SDS011;52359;42.658;23.320;2022-08-20T14:40:23;13.88;;;9.18;;
43527;SDS011;52359;42.658;23.320;2022-08-20T14:42:49;23.70;;;10.10;;
43527;SDS011;52359;42.658;23.320;2022-08-20T14:45:15;20.17;;;10.50;;
43527;SDS011;52359;42.658;23.320;2022-08-20T14:47:43;14.23;;;10.18;;
43527;SDS011;52359;42.658;23.320;2022-08-20T14:50:14;16.52;;;9.93;;
43527;SDS011;52359;42.658;23.320;2022-08-20T14:52:40;13.90;;;8.35;;
43527;SDS011;52359;42.658;23.320;2022-08-20T14:55:08;11.90;;;8.57;;